sensor_id;sensor_type;location;lat;lon;timestamp;temperature;humidity
75457;SHT31;64036;48.266;14.192;2023-04-08T00:02:12;8.18;54.31
75457;SHT31;64036;48.266;14.192;2023-04-08T00:04:41;8.21;54.34
75457;SHT31;64036;48.266;14.192;2023-04-08T00:07:37;8.21;54.32
75457;SHT31;64036;48.266;14.192;2023-04-08T00:10:12;8.19;54.02
75457;SHT31;64036;48.266;14.192;2023-04-08T00:12:40;8.19;53.97
75457;SHT31;64036;48.266;14.192;2023-04-08T00:15:30;8.18;55.06
75457;SHT31;64036;48.266;14.192;2023-04-08T00:18:15;8.17;55.86
75457;SHT31;64036;48.266;14.192;2023-04-08T00:23:49;7.99;55.71
75457;SHT31;64036;48.266;14.192;2023-04-08T00:26:40;7.97;55.70
75457;SHT31;64036;48.266;14.192;2023-04-08T00:29:23;7.99;55.70
75457;SHT31;64036;48.266;14.192;2023-04-08T00:34:43;8.03;55.69
75457;SHT31;64036;48.266;14.192;2023-04-08T00:37:15;8.02;56.59
75457;SHT31;64036;48.266;14.192;2023-04-08T00:39:58;7.97;56.65
75457;SHT31;64036;48.266;14.192;2023-04-08T00:42:29;7.98;56.53
75457;SHT31;64036;48.266;14.192;2023-04-08T00:48:09;7.92;57.59
75457;SHT31;64036;48.266;14.192;2023-04-08T00:53:56;7.91;58.43
75457;SHT31;64036;48.266;14.192;2023-04-08T00:56:53;7.88;58.95
75457;SHT31;64036;48.266;14.192;2023-04-08T01:03:34;7.79;59.93
75457;SHT31;64036;48.266;14.192;2023-04-08T01:09:47;7.69;60.82
75457;SHT31;64036;48.266;14.192;2023-04-08T01:12:36;7.63;61.16
75457;SHT31;64036;48.266;14.192;2023-04-08T01:15:19;7.59;61.55
75457;SHT31;64036;48.266;14.192;2023-04-08T01:18:10;7.57;61.78
75457;SHT31;64036;48.266;14.192;2023-04-08T01:21:16;7.47;62.88
75457;SHT31;64036;48.266;14.192;2023-04-08T01:27:04;7.25;63.21
75457;SHT31;64036;48.266;14.192;2023-04-08T01:29:45;7.16;63.12
75457;SHT31;64036;48.266;14.192;2023-04-08T01:35:41;7.10;63.15
75457;SHT31;64036;48.266;14.192;2023-04-08T01:38:21;7.09;62.87
75457;SHT31;64036;48.266;14.192;2023-04-08T01:41:07;7.08;63.00
75457;SHT31;64036;48.266;14.192;2023-04-08T01:43:47;7.09;62.88
75457;SHT31;64036;48.266;14.192;2023-04-08T01:46:17;7.13;62.73
75457;SHT31;64036;48.266;14.192;2023-04-08T01:49:04;7.18;62.54
75457;SHT31;64036;48.266;14.192;2023-04-08T01:54:51;7.27;62.38
75457;SHT31;64036;48.266;14.192;2023-04-08T01:57:53;7.30;62.32
75457;SHT31;64036;48.266;14.192;2023-04-08T02:00:32;7.32;62.24
75457;SHT31;64036;48.266;14.192;2023-04-08T02:03:23;7.31;62.65
75457;SHT31;64036;48.266;14.192;2023-04-08T02:05:58;7.29;63.43
75457;SHT31;64036;48.266;14.192;2023-04-08T02:08:35;7.28;64.04
75457;SHT31;64036;48.266;14.192;2023-04-08T02:11:25;7.26;64.26
75457;SHT31;64036;48.266;14.192;2023-04-08T02:14:24;7.19;64.47
75457;SHT31;64036;48.266;14.192;2023-04-08T02:20:40;6.97;65.24
75457;SHT31;64036;48.266;14.192;2023-04-08T02:29:17;6.98;65.13
75457;SHT31;64036;48.266;14.192;2023-04-08T02:32:13;6.96;65.55
75457;SHT31;64036;48.266;14.192;2023-04-08T02:34:55;6.96;65.24
75457;SHT31;64036;48.266;14.192;2023-04-08T02:37:33;6.97;65.27
75457;SHT31;64036;48.266;14.192;2023-04-08T02:40:28;6.98;65.36
75457;SHT31;64036;48.266;14.192;2023-04-08T02:43:16;6.99;65.39
75457;SHT31;64036;48.266;14.192;2023-04-08T02:45:56;6.99;65.45
75457;SHT31;64036;48.266;14.192;2023-04-08T02:51:33;6.93;65.71
75457;SHT31;64036;48.266;14.192;2023-04-08T02:54:17;6.95;65.50
75457;SHT31;64036;48.266;14.192;2023-04-08T02:57:04;6.97;65.54
75457;SHT31;64036;48.266;14.192;2023-04-08T02:59:41;7.00;65.34
75457;SHT31;64036;48.266;14.192;2023-04-08T03:05:00;7.01;65.44
75457;SHT31;64036;48.266;14.192;2023-04-08T03:07:35;7.01;66.13
75457;SHT31;64036;48.266;14.192;2023-04-08T03:10:19;6.94;66.72
75457;SHT31;64036;48.266;14.192;2023-04-08T03:15:28;6.90;66.70
75457;SHT31;64036;48.266;14.192;2023-04-08T03:18:10;6.94;66.68
75457;SHT31;64036;48.266;14.192;2023-04-08T03:24:15;6.97;65.92
75457;SHT31;64036;48.266;14.192;2023-04-08T03:26:48;7.01;65.60
75457;SHT31;64036;48.266;14.192;2023-04-08T03:29:37;7.03;65.34
75457;SHT31;64036;48.266;14.192;2023-04-08T03:32:17;7.03;64.94
75457;SHT31;64036;48.266;14.192;2023-04-08T03:35:09;7.03;65.48
75457;SHT31;64036;48.266;14.192;2023-04-08T03:37:45;7.06;65.28
75457;SHT31;64036;48.266;14.192;2023-04-08T03:40:24;7.09;65.52
75457;SHT31;64036;48.266;14.192;2023-04-08T03:43:18;7.12;65.52
75457;SHT31;64036;48.266;14.192;2023-04-08T03:48:48;7.10;66.11
75457;SHT31;64036;48.266;14.192;2023-04-08T03:51:17;7.09;65.28
75457;SHT31;64036;48.266;14.192;2023-04-08T03:57:07;7.12;65.70
75457;SHT31;64036;48.266;14.192;2023-04-08T04:00:01;7.11;66.00
75457;SHT31;64036;48.266;14.192;2023-04-08T04:02:39;7.13;64.96
75457;SHT31;64036;48.266;14.192;2023-04-08T04:05:44;7.16;65.13
75457;SHT31;64036;48.266;14.192;2023-04-08T04:08:18;7.15;65.37
75457;SHT31;64036;48.266;14.192;2023-04-08T04:13:29;7.19;65.09
75457;SHT31;64036;48.266;14.192;2023-04-08T04:16:36;7.21;65.39
75457;SHT31;64036;48.266;14.192;2023-04-08T04:19:16;7.20;65.44
75457;SHT31;64036;48.266;14.192;2023-04-08T04:22:09;7.14;66.43
75457;SHT31;64036;48.266;14.192;2023-04-08T04:24:46;7.06;67.16
75457;SHT31;64036;48.266;14.192;2023-04-08T04:30:25;7.09;66.65
75457;SHT31;64036;48.266;14.192;2023-04-08T04:33:00;7.08;67.18
75457;SHT31;64036;48.266;14.192;2023-04-08T04:35:41;7.09;67.63
75457;SHT31;64036;48.266;14.192;2023-04-08T04:38:29;7.10;67.93
75457;SHT31;64036;48.266;14.192;2023-04-08T04:41:12;7.08;68.15
75457;SHT31;64036;48.266;14.192;2023-04-08T04:44:08;7.08;68.21
75457;SHT31;64036;48.266;14.192;2023-04-08T04:47:12;7.08;68.11
75457;SHT31;64036;48.266;14.192;2023-04-08T04:50:03;7.05;68.35
75457;SHT31;64036;48.266;14.192;2023-04-08T04:53:05;7.01;68.66
75457;SHT31;64036;48.266;14.192;2023-04-08T04:55:36;6.99;68.98
75457;SHT31;64036;48.266;14.192;2023-04-08T05:03:48;6.86;70.47
75457;SHT31;64036;48.266;14.192;2023-04-08T05:06:32;6.84;70.50
75457;SHT31;64036;48.266;14.192;2023-04-08T05:09:03;6.84;70.55
75457;SHT31;64036;48.266;14.192;2023-04-08T05:12:14;6.82;70.79
75457;SHT31;64036;48.266;14.192;2023-04-08T05:14:44;6.79;71.00
75457;SHT31;64036;48.266;14.192;2023-04-08T05:17:27;6.78;71.12
75457;SHT31;64036;48.266;14.192;2023-04-08T05:20:01;6.75;71.32
75457;SHT31;64036;48.266;14.192;2023-04-08T05:22:44;6.72;71.48
75457;SHT31;64036;48.266;14.192;2023-04-08T05:25:38;6.69;71.80
75457;SHT31;64036;48.266;14.192;2023-04-08T05:28:34;6.67;71.78
75457;SHT31;64036;48.266;14.192;2023-04-08T05:31:36;6.67;72.03
75457;SHT31;64036;48.266;14.192;2023-04-08T05:34:12;6.64;72.16
75457;SHT31;64036;48.266;14.192;2023-04-08T05:36:55;6.59;72.39
75457;SHT31;64036;48.266;14.192;2023-04-08T05:39:39;6.57;72.59
75457;SHT31;64036;48.266;14.192;2023-04-08T05:42:32;6.59;72.69
75457;SHT31;64036;48.266;14.192;2023-04-08T05:45:13;6.61;72.77
75457;SHT31;64036;48.266;14.192;2023-04-08T05:47:52;6.58;72.91
75457;SHT31;64036;48.266;14.192;2023-04-08T05:50:28;6.56;72.94
75457;SHT31;64036;48.266;14.192;2023-04-08T05:53:09;6.52;72.99
75457;SHT31;64036;48.266;14.192;2023-04-08T05:55:39;6.48;73.09
75457;SHT31;64036;48.266;14.192;2023-04-08T05:58:19;6.47;73.17
75457;SHT31;64036;48.266;14.192;2023-04-08T06:01:07;6.45;73.18
75457;SHT31;64036;48.266;14.192;2023-04-08T06:03:44;6.43;73.25
75457;SHT31;64036;48.266;14.192;2023-04-08T06:06:29;6.41;73.22
75457;SHT31;64036;48.266;14.192;2023-04-08T06:11:53;6.37;73.27
75457;SHT31;64036;48.266;14.192;2023-04-08T06:14:52;6.39;73.19
75457;SHT31;64036;48.266;14.192;2023-04-08T06:17:19;6.38;73.31
75457;SHT31;64036;48.266;14.192;2023-04-08T06:19:59;6.39;73.22
75457;SHT31;64036;48.266;14.192;2023-04-08T06:22:38;6.37;73.01
75457;SHT31;64036;48.266;14.192;2023-04-08T06:28:24;6.36;73.28
75457;SHT31;64036;48.266;14.192;2023-04-08T06:31:03;6.36;73.32
75457;SHT31;64036;48.266;14.192;2023-04-08T06:33:32;6.33;73.42
75457;SHT31;64036;48.266;14.192;2023-04-08T06:36:23;6.29;73.61
75457;SHT31;64036;48.266;14.192;2023-04-08T06:39:22;6.33;73.84
75457;SHT31;64036;48.266;14.192;2023-04-08T06:42:02;6.35;73.77
75457;SHT31;64036;48.266;14.192;2023-04-08T06:44:46;6.32;73.87
75457;SHT31;64036;48.266;14.192;2023-04-08T06:47:20;6.34;74.07
75457;SHT31;64036;48.266;14.192;2023-04-08T06:49:46;6.34;74.14
75457;SHT31;64036;48.266;14.192;2023-04-08T06:52:31;6.34;74.23
75457;SHT31;64036;48.266;14.192;2023-04-08T06:55:22;6.38;74.32
75457;SHT31;64036;48.266;14.192;2023-04-08T06:58:13;6.42;74.43
75457;SHT31;64036;48.266;14.192;2023-04-08T07:00:41;6.46;74.47
75457;SHT31;64036;48.266;14.192;2023-04-08T07:03:30;6.52;74.50
75457;SHT31;64036;48.266;14.192;2023-04-08T07:06:16;6.57;74.63
75457;SHT31;64036;48.266;14.192;2023-04-08T07:08:51;6.63;74.63
75457;SHT31;64036;48.266;14.192;2023-04-08T07:11:28;6.63;74.49
75457;SHT31;64036;48.266;14.192;2023-04-08T07:14:10;6.59;74.50
75457;SHT31;64036;48.266;14.192;2023-04-08T07:16:49;6.59;74.70
75457;SHT31;64036;48.266;14.192;2023-04-08T07:19:18;6.61;74.77
75457;SHT31;64036;48.266;14.192;2023-04-08T07:21:57;6.59;74.53
75457;SHT31;64036;48.266;14.192;2023-04-08T07:27:16;6.51;74.73
75457;SHT31;64036;48.266;14.192;2023-04-08T07:30:13;6.43;74.84
75457;SHT31;64036;48.266;14.192;2023-04-08T07:32:50;6.37;74.82
75457;SHT31;64036;48.266;14.192;2023-04-08T07:35:27;6.34;75.02
75457;SHT31;64036;48.266;14.192;2023-04-08T07:38:08;6.30;75.11
75457;SHT31;64036;48.266;14.192;2023-04-08T07:40:53;6.28;75.40
75457;SHT31;64036;48.266;14.192;2023-04-08T07:43:46;6.24;75.77
75457;SHT31;64036;48.266;14.192;2023-04-08T07:52:08;6.26;76.05
75457;SHT31;64036;48.266;14.192;2023-04-08T07:55:00;6.27;76.21
75457;SHT31;64036;48.266;14.192;2023-04-08T07:57:32;6.30;76.27
75457;SHT31;64036;48.266;14.192;2023-04-08T08:00:19;6.35;76.19
75457;SHT31;64036;48.266;14.192;2023-04-08T08:02:51;6.40;76.14
75457;SHT31;64036;48.266;14.192;2023-04-08T08:11:05;6.41;75.78
75457;SHT31;64036;48.266;14.192;2023-04-08T08:14:02;6.42;75.54
75457;SHT31;64036;48.266;14.192;2023-04-08T08:17:04;6.45;75.59
75457;SHT31;64036;48.266;14.192;2023-04-08T08:23:18;6.50;75.79
75457;SHT31;64036;48.266;14.192;2023-04-08T08:26:10;6.49;75.67
75457;SHT31;64036;48.266;14.192;2023-04-08T08:28:50;6.48;75.62
75457;SHT31;64036;48.266;14.192;2023-04-08T08:34:29;6.54;75.72
75457;SHT31;64036;48.266;14.192;2023-04-08T08:37:20;6.55;75.85
75457;SHT31;64036;48.266;14.192;2023-04-08T08:40:20;6.54;75.64
75457;SHT31;64036;48.266;14.192;2023-04-08T08:43:11;6.46;75.46
75457;SHT31;64036;48.266;14.192;2023-04-08T08:46:02;6.40;75.71
75457;SHT31;64036;48.266;14.192;2023-04-08T08:48:35;6.36;75.68
75457;SHT31;64036;48.266;14.192;2023-04-08T08:51:25;6.38;75.59
75457;SHT31;64036;48.266;14.192;2023-04-08T08:54:16;6.43;75.76
75457;SHT31;64036;48.266;14.192;2023-04-08T08:56:51;6.46;75.67
75457;SHT31;64036;48.266;14.192;2023-04-08T08:59:48;6.53;75.62
75457;SHT31;64036;48.266;14.192;2023-04-08T09:05:13;6.64;75.51
75457;SHT31;64036;48.266;14.192;2023-04-08T09:07:54;6.67;75.39
75457;SHT31;64036;48.266;14.192;2023-04-08T09:13:21;6.70;75.06
75457;SHT31;64036;48.266;14.192;2023-04-08T09:16:22;6.74;75.04
75457;SHT31;64036;48.266;14.192;2023-04-08T09:19:06;6.80;74.99
75457;SHT31;64036;48.266;14.192;2023-04-08T09:22:04;6.86;74.77
75457;SHT31;64036;48.266;14.192;2023-04-08T09:25:03;6.98;74.99
75457;SHT31;64036;48.266;14.192;2023-04-08T09:28:03;7.09;74.86
75457;SHT31;64036;48.266;14.192;2023-04-08T09:30:41;7.20;74.81
75457;SHT31;64036;48.266;14.192;2023-04-08T09:33:16;7.27;74.71
75457;SHT31;64036;48.266;14.192;2023-04-08T09:35:44;7.34;74.56
75457;SHT31;64036;48.266;14.192;2023-04-08T09:38:15;7.41;74.33
75457;SHT31;64036;48.266;14.192;2023-04-08T09:40:46;7.42;74.12
75457;SHT31;64036;48.266;14.192;2023-04-08T09:43:43;7.39;74.05
75457;SHT31;64036;48.266;14.192;2023-04-08T09:47:17;7.38;74.08
75457;SHT31;64036;48.266;14.192;2023-04-08T09:50:00;7.39;73.96
75457;SHT31;64036;48.266;14.192;2023-04-08T09:52:33;7.36;74.09
75457;SHT31;64036;48.266;14.192;2023-04-08T09:55:30;7.42;74.11
75457;SHT31;64036;48.266;14.192;2023-04-08T09:58:14;7.53;74.26
75457;SHT31;64036;48.266;14.192;2023-04-08T10:01:00;7.63;74.23
75457;SHT31;64036;48.266;14.192;2023-04-08T10:04:02;7.72;74.25
75457;SHT31;64036;48.266;14.192;2023-04-08T10:06:56;7.78;74.15
75457;SHT31;64036;48.266;14.192;2023-04-08T10:09:36;7.89;74.25
75457;SHT31;64036;48.266;14.192;2023-04-08T10:12:26;7.99;73.89
75457;SHT31;64036;48.266;14.192;2023-04-08T10:15:43;8.01;73.81
75457;SHT31;64036;48.266;14.192;2023-04-08T10:20:56;8.17;73.63
75457;SHT31;64036;48.266;14.192;2023-04-08T10:24:13;8.12;73.21
75457;SHT31;64036;48.266;14.192;2023-04-08T10:26:33;8.07;73.31
75457;SHT31;64036;48.266;14.192;2023-04-08T10:32:11;8.09;73.47
75457;SHT31;64036;48.266;14.192;2023-04-08T10:35:04;8.07;73.46
75457;SHT31;64036;48.266;14.192;2023-04-08T10:37:45;8.05;73.74
75457;SHT31;64036;48.266;14.192;2023-04-08T10:43:16;7.95;73.34
75457;SHT31;64036;48.266;14.192;2023-04-08T10:45:55;7.88;73.25
75457;SHT31;64036;48.266;14.192;2023-04-08T10:48:31;7.88;73.57
75457;SHT31;64036;48.266;14.192;2023-04-08T10:51:00;7.85;73.58
75457;SHT31;64036;48.266;14.192;2023-04-08T10:53:35;7.83;73.49
75457;SHT31;64036;48.266;14.192;2023-04-08T10:58:54;7.84;73.80
75457;SHT31;64036;48.266;14.192;2023-04-08T11:01:27;7.88;73.59
75457;SHT31;64036;48.266;14.192;2023-04-08T11:04:15;7.87;73.44
75457;SHT31;64036;48.266;14.192;2023-04-08T11:06:45;7.89;73.61
75457;SHT31;64036;48.266;14.192;2023-04-08T11:09:17;7.99;73.60
75457;SHT31;64036;48.266;14.192;2023-04-08T11:11:48;8.15;73.62
75457;SHT31;64036;48.266;14.192;2023-04-08T11:14:21;8.29;73.39
75457;SHT31;64036;48.266;14.192;2023-04-08T11:16:48;8.40;73.08
75457;SHT31;64036;48.266;14.192;2023-04-08T11:19:19;8.47;72.83
75457;SHT31;64036;48.266;14.192;2023-04-08T11:21:49;8.48;72.69
75457;SHT31;64036;48.266;14.192;2023-04-08T11:24:21;8.50;72.65
75457;SHT31;64036;48.266;14.192;2023-04-08T11:26:51;8.54;72.36
75457;SHT31;64036;48.266;14.192;2023-04-08T11:29:16;8.61;72.71
75457;SHT31;64036;48.266;14.192;2023-04-08T11:31:43;8.72;72.57
75457;SHT31;64036;48.266;14.192;2023-04-08T11:34:11;8.73;72.24
75457;SHT31;64036;48.266;14.192;2023-04-08T11:36:48;8.74;72.07
75457;SHT31;64036;48.266;14.192;2023-04-08T11:39:23;8.75;71.91
75457;SHT31;64036;48.266;14.192;2023-04-08T11:41:54;8.70;72.01
75457;SHT31;64036;48.266;14.192;2023-04-08T11:44:28;8.69;72.17
75457;SHT31;64036;48.266;14.192;2023-04-08T11:46:57;8.72;71.85
75457;SHT31;64036;48.266;14.192;2023-04-08T11:49:26;8.73;71.87
75457;SHT31;64036;48.266;14.192;2023-04-08T11:51:53;8.82;72.01
75457;SHT31;64036;48.266;14.192;2023-04-08T11:54:28;8.94;72.04
75457;SHT31;64036;48.266;14.192;2023-04-08T11:56:59;9.00;71.74
75457;SHT31;64036;48.266;14.192;2023-04-08T11:59:35;8.96;71.44
75457;SHT31;64036;48.266;14.192;2023-04-08T12:02:06;8.94;71.83
75457;SHT31;64036;48.266;14.192;2023-04-08T12:04:35;8.92;71.63
75457;SHT31;64036;48.266;14.192;2023-04-08T12:07:01;8.88;71.36
75457;SHT31;64036;48.266;14.192;2023-04-08T12:09:28;8.76;71.10
75457;SHT31;64036;48.266;14.192;2023-04-08T12:12:12;8.63;71.42
75457;SHT31;64036;48.266;14.192;2023-04-08T12:14:50;8.58;71.96
75457;SHT31;64036;48.266;14.192;2023-04-08T12:17:23;8.56;72.02
75457;SHT31;64036;48.266;14.192;2023-04-08T12:20:08;8.53;71.97
75457;SHT31;64036;48.266;14.192;2023-04-08T12:23:07;8.48;71.86
75457;SHT31;64036;48.266;14.192;2023-04-08T12:25:48;8.43;72.07
75457;SHT31;64036;48.266;14.192;2023-04-08T12:28:16;8.41;72.10
75457;SHT31;64036;48.266;14.192;2023-04-08T12:30:47;8.39;71.85
75457;SHT31;64036;48.266;14.192;2023-04-08T12:33:31;8.33;71.84
75457;SHT31;64036;48.266;14.192;2023-04-08T12:36:00;8.27;72.05
75457;SHT31;64036;48.266;14.192;2023-04-08T12:38:28;8.27;72.13
75457;SHT31;64036;48.266;14.192;2023-04-08T12:41:07;8.23;72.16
75457;SHT31;64036;48.266;14.192;2023-04-08T12:43:50;8.21;72.21
75457;SHT31;64036;48.266;14.192;2023-04-08T12:46:18;8.16;72.14
75457;SHT31;64036;48.266;14.192;2023-04-08T12:48:55;8.11;72.10
75457;SHT31;64036;48.266;14.192;2023-04-08T12:51:30;8.07;72.28
75457;SHT31;64036;48.266;14.192;2023-04-08T12:54:09;8.07;72.41
75457;SHT31;64036;48.266;14.192;2023-04-08T12:56:53;8.04;72.53
75457;SHT31;64036;48.266;14.192;2023-04-08T12:59:30;8.03;72.56
75457;SHT31;64036;48.266;14.192;2023-04-08T13:02:10;8.00;72.58
75457;SHT31;64036;48.266;14.192;2023-04-08T13:04:36;7.98;72.66
75457;SHT31;64036;48.266;14.192;2023-04-08T13:07:18;7.97;72.81
75457;SHT31;64036;48.266;14.192;2023-04-08T13:10:04;7.98;73.12
75457;SHT31;64036;48.266;14.192;2023-04-08T13:12:31;8.00;73.20
75457;SHT31;64036;48.266;14.192;2023-04-08T13:15:14;7.99;73.30
75457;SHT31;64036;48.266;14.192;2023-04-08T13:17:51;8.09;73.36
75457;SHT31;64036;48.266;14.192;2023-04-08T13:20:25;8.15;73.29
75457;SHT31;64036;48.266;14.192;2023-04-08T13:23:02;8.22;73.56
75457;SHT31;64036;48.266;14.192;2023-04-08T13:25:54;8.31;73.39
75457;SHT31;64036;48.266;14.192;2023-04-08T13:28:38;8.34;73.35
75457;SHT31;64036;48.266;14.192;2023-04-08T13:31:19;8.35;73.30
75457;SHT31;64036;48.266;14.192;2023-04-08T13:34:05;8.38;73.33
75457;SHT31;64036;48.266;14.192;2023-04-08T13:36:42;8.36;73.38
75457;SHT31;64036;48.266;14.192;2023-04-08T13:39:23;8.35;73.44
75457;SHT31;64036;48.266;14.192;2023-04-08T13:41:54;8.30;73.17
75457;SHT31;64036;48.266;14.192;2023-04-08T13:45:04;8.23;73.37
75457;SHT31;64036;48.266;14.192;2023-04-08T13:47:52;8.21;73.39
75457;SHT31;64036;48.266;14.192;2023-04-08T13:50:28;8.18;73.24
75457;SHT31;64036;48.266;14.192;2023-04-08T13:52:53;8.11;73.08
75457;SHT31;64036;48.266;14.192;2023-04-08T13:55:34;8.07;73.00
75457;SHT31;64036;48.266;14.192;2023-04-08T13:58:07;8.01;72.67
75457;SHT31;64036;48.266;14.192;2023-04-08T14:00:33;7.91;72.30
75457;SHT31;64036;48.266;14.192;2023-04-08T14:03:17;7.81;72.83
75457;SHT31;64036;48.266;14.192;2023-04-08T14:05:52;7.75;73.09
75457;SHT31;64036;48.266;14.192;2023-04-08T14:08:36;7.69;73.07
75457;SHT31;64036;48.266;14.192;2023-04-08T14:11:02;7.60;72.24
75457;SHT31;64036;48.266;14.192;2023-04-08T14:13:38;7.56;72.37
75457;SHT31;64036;48.266;14.192;2023-04-08T14:17:02;7.50;72.37
75457;SHT31;64036;48.266;14.192;2023-04-08T14:19:49;7.48;72.67
75457;SHT31;64036;48.266;14.192;2023-04-08T14:22:40;7.47;72.94
75457;SHT31;64036;48.266;14.192;2023-04-08T14:25:26;7.46;73.04
75457;SHT31;64036;48.266;14.192;2023-04-08T14:28:02;7.43;72.66
75457;SHT31;64036;48.266;14.192;2023-04-08T14:30:39;7.40;72.11
75457;SHT31;64036;48.266;14.192;2023-04-08T14:33:36;7.33;71.82
75457;SHT31;64036;48.266;14.192;2023-04-08T14:36:14;7.36;71.93
75457;SHT31;64036;48.266;14.192;2023-04-08T14:39:07;7.37;71.80
75457;SHT31;64036;48.266;14.192;2023-04-08T14:41:48;7.34;71.58
75457;SHT31;64036;48.266;14.192;2023-04-08T14:44:38;7.34;71.53
75457;SHT31;64036;48.266;14.192;2023-04-08T14:47:16;7.32;71.50
75457;SHT31;64036;48.266;14.192;2023-04-08T14:49:45;7.31;71.21
75457;SHT31;64036;48.266;14.192;2023-04-08T14:52:52;7.33;71.29
75457;SHT31;64036;48.266;14.192;2023-04-08T14:55:27;7.33;71.25
75457;SHT31;64036;48.266;14.192;2023-04-08T14:57:56;7.33;71.26
75457;SHT31;64036;48.266;14.192;2023-04-08T15:00:35;7.35;71.25
75457;SHT31;64036;48.266;14.192;2023-04-08T15:03:09;7.40;71.00
75457;SHT31;64036;48.266;14.192;2023-04-08T15:08:56;7.44;70.87
75457;SHT31;64036;48.266;14.192;2023-04-08T15:11:52;7.45;71.23
75457;SHT31;64036;48.266;14.192;2023-04-08T15:14:44;7.47;71.26
75457;SHT31;64036;48.266;14.192;2023-04-08T15:17:22;7.46;71.43
75457;SHT31;64036;48.266;14.192;2023-04-08T15:20:01;7.46;71.28
75457;SHT31;64036;48.266;14.192;2023-04-08T15:22:30;7.44;71.26
75457;SHT31;64036;48.266;14.192;2023-04-08T15:25:13;7.43;71.27
75457;SHT31;64036;48.266;14.192;2023-04-08T15:27:51;7.41;71.82
75457;SHT31;64036;48.266;14.192;2023-04-08T15:30:28;7.42;72.03
75457;SHT31;64036;48.266;14.192;2023-04-08T15:33:07;7.44;72.00
75457;SHT31;64036;48.266;14.192;2023-04-08T15:36:23;7.42;72.32
75457;SHT31;64036;48.266;14.192;2023-04-08T15:38:53;7.38;72.69
75457;SHT31;64036;48.266;14.192;2023-04-08T15:41:32;7.36;72.55
75457;SHT31;64036;48.266;14.192;2023-04-08T15:44:19;7.35;72.69
75457;SHT31;64036;48.266;14.192;2023-04-08T15:47:01;7.34;72.75
75457;SHT31;64036;48.266;14.192;2023-04-08T15:49:38;7.33;72.57
75457;SHT31;64036;48.266;14.192;2023-04-08T15:52:10;7.34;72.44
75457;SHT31;64036;48.266;14.192;2023-04-08T15:54:54;7.33;72.27
75457;SHT31;64036;48.266;14.192;2023-04-08T15:57:30;7.30;72.28
75457;SHT31;64036;48.266;14.192;2023-04-08T16:00:03;7.26;72.33
75457;SHT31;64036;48.266;14.192;2023-04-08T16:02:47;7.21;72.48
75457;SHT31;64036;48.266;14.192;2023-04-08T16:05:24;7.14;72.89
75457;SHT31;64036;48.266;14.192;2023-04-08T16:10:32;7.06;73.10
75457;SHT31;64036;48.266;14.192;2023-04-08T16:12:58;7.05;73.36
75457;SHT31;64036;48.266;14.192;2023-04-08T16:15:48;7.06;73.19
75457;SHT31;64036;48.266;14.192;2023-04-08T16:18:36;7.03;73.51
75457;SHT31;64036;48.266;14.192;2023-04-08T16:21:33;6.99;73.67
75457;SHT31;64036;48.266;14.192;2023-04-08T16:24:08;6.95;73.88
75457;SHT31;64036;48.266;14.192;2023-04-08T16:26:47;6.90;73.97
75457;SHT31;64036;48.266;14.192;2023-04-08T16:29:21;6.91;73.89
75457;SHT31;64036;48.266;14.192;2023-04-08T16:32:12;6.89;73.93
75457;SHT31;64036;48.266;14.192;2023-04-08T16:35:00;6.84;74.12
75457;SHT31;64036;48.266;14.192;2023-04-08T16:37:40;6.80;74.34
75457;SHT31;64036;48.266;14.192;2023-04-08T16:43:10;6.74;75.04
75457;SHT31;64036;48.266;14.192;2023-04-08T16:45:41;6.72;75.13
75457;SHT31;64036;48.266;14.192;2023-04-08T16:48:25;6.71;75.24
75457;SHT31;64036;48.266;14.192;2023-04-08T16:51:07;6.68;75.14
75457;SHT31;64036;48.266;14.192;2023-04-08T16:53:44;6.68;75.07
75457;SHT31;64036;48.266;14.192;2023-04-08T16:56:23;6.68;75.12
75457;SHT31;64036;48.266;14.192;2023-04-08T16:59:11;6.66;75.09
75457;SHT31;64036;48.266;14.192;2023-04-08T17:01:41;6.67;75.12
75457;SHT31;64036;48.266;14.192;2023-04-08T17:04:28;6.68;75.06
75457;SHT31;64036;48.266;14.192;2023-04-08T17:07:20;6.66;75.02
75457;SHT31;64036;48.266;14.192;2023-04-08T17:10:08;6.60;75.19
75457;SHT31;64036;48.266;14.192;2023-04-08T17:12:43;6.57;75.56
75457;SHT31;64036;48.266;14.192;2023-04-08T17:15:28;6.53;75.99
75457;SHT31;64036;48.266;14.192;2023-04-08T17:20:43;6.51;76.11
75457;SHT31;64036;48.266;14.192;2023-04-08T17:23:19;6.45;76.55
75457;SHT31;64036;48.266;14.192;2023-04-08T17:26:07;6.40;76.92
75457;SHT31;64036;48.266;14.192;2023-04-08T17:28:46;6.38;77.20
75457;SHT31;64036;48.266;14.192;2023-04-08T17:31:41;6.37;77.35
75457;SHT31;64036;48.266;14.192;2023-04-08T17:34:08;6.29;77.60
75457;SHT31;64036;48.266;14.192;2023-04-08T17:36:51;6.23;77.09
75457;SHT31;64036;48.266;14.192;2023-04-08T17:39:35;6.20;76.78
75457;SHT31;64036;48.266;14.192;2023-04-08T17:42:05;6.16;76.72
75457;SHT31;64036;48.266;14.192;2023-04-08T17:44:32;6.13;76.72
75457;SHT31;64036;48.266;14.192;2023-04-08T17:47:22;6.09;77.12
75457;SHT31;64036;48.266;14.192;2023-04-08T17:50:10;6.04;77.14
75457;SHT31;64036;48.266;14.192;2023-04-08T17:52:48;6.01;76.98
75457;SHT31;64036;48.266;14.192;2023-04-08T17:55:23;5.99;76.85
75457;SHT31;64036;48.266;14.192;2023-04-08T17:57:51;6.00;76.85
75457;SHT31;64036;48.266;14.192;2023-04-08T18:01:11;6.01;76.81
75457;SHT31;64036;48.266;14.192;2023-04-08T18:04:05;5.99;76.80
75457;SHT31;64036;48.266;14.192;2023-04-08T18:06:40;6.00;76.84
75457;SHT31;64036;48.266;14.192;2023-04-08T18:09:54;5.98;77.00
75457;SHT31;64036;48.266;14.192;2023-04-08T18:12:47;5.99;77.06
75457;SHT31;64036;48.266;14.192;2023-04-08T18:15:33;6.01;77.01
75457;SHT31;64036;48.266;14.192;2023-04-08T18:18:08;5.99;77.10
75457;SHT31;64036;48.266;14.192;2023-04-08T18:20:36;5.99;77.11
75457;SHT31;64036;48.266;14.192;2023-04-08T18:23:23;5.99;77.18
75457;SHT31;64036;48.266;14.192;2023-04-08T18:26:21;5.97;77.37
75457;SHT31;64036;48.266;14.192;2023-04-08T18:29:06;5.96;77.37
75457;SHT31;64036;48.266;14.192;2023-04-08T18:31:43;5.94;77.50
75457;SHT31;64036;48.266;14.192;2023-04-08T18:34:31;5.91;77.63
75457;SHT31;64036;48.266;14.192;2023-04-08T18:37:10;5.88;77.99
75457;SHT31;64036;48.266;14.192;2023-04-08T18:40:14;5.87;77.84
75457;SHT31;64036;48.266;14.192;2023-04-08T18:42:40;5.82;78.00
75457;SHT31;64036;48.266;14.192;2023-04-08T18:45:34;5.77;78.39
75457;SHT31;64036;48.266;14.192;2023-04-08T18:48:21;5.76;78.58
75457;SHT31;64036;48.266;14.192;2023-04-08T18:51:16;5.73;78.89
75457;SHT31;64036;48.266;14.192;2023-04-08T18:54:12;5.72;78.91
75457;SHT31;64036;48.266;14.192;2023-04-08T18:57:29;5.70;79.15
75457;SHT31;64036;48.266;14.192;2023-04-08T19:00:08;5.70;79.03
75457;SHT31;64036;48.266;14.192;2023-04-08T19:03:03;5.65;79.12
75457;SHT31;64036;48.266;14.192;2023-04-08T19:05:43;5.61;79.15